Time;durP1;ratioP1;P1;durP2;ratioP2;P2;SDS_P1;SDS_P2;PMS_P1;PMS_P2;Temp;Humidity;BMP_temperature;BMP_pressure;BME280_temperature;BME280_humidity;BME280_pressure;Samples;Min_cycle;Max_cycle;Signal;HPM_P1;HPM_P2
2023/06/12 00:01:03;;;;;;;14.93;6.90;;;;;;;20.17;49.39;101387.44;4912974;29;20059;-85
2023/06/12 00:03:29;;;;;;;11.85;6.15;;;;;;;20.12;49.42;101383.25;4954749;28;20111;-84
2023/06/12 00:05:59;;;;;;;11.07;6.40;;;;;;;20.04;49.80;101382.31;4955561;28;20035;-84
2023/06/12 00:08:33;;;;;;;9.88;6.40;;;;;;;20.04;49.61;101382.31;4970881;28;20039;-85
2023/06/12 00:10:58;;;;;;;7.68;5.18;;;;;;;19.98;50.29;101386.59;4969820;28;20043;-84
2023/06/12 00:13:24;;;;;;;12.45;5.88;;;;;;;19.94;50.00;101378.78;4970459;28;20031;-85
2023/06/12 00:15:53;;;;;;;8.27;6.03;;;;;;;19.90;50.38;101382.88;4953311;29;20400;-84
2023/06/12 00:18:18;;;;;;;7.70;6.25;;;;;;;19.81;50.66;101377.28;4952666;28;20114;-85
2023/06/12 00:20:44;;;;;;;6.95;6.00;;;;;;;19.76;50.76;101381.53;4967337;28;20118;-84
2023/06/12 00:23:10;;;;;;;12.18;6.47;;;;;;;19.69;50.49;101378.56;4967198;28;20051;-84
2023/06/12 00:25:36;;;;;;;9.32;6.05;;;;;;;19.66;50.83;101381.63;4952485;28;20539;-84
2023/06/12 00:28:01;;;;;;;9.98;6.30;;;;;;;19.62;50.72;101377.44;4950049;28;20403;-83
2023/06/12 00:30:26;;;;;;;11.05;6.88;;;;;;;19.64;50.46;101375.41;4952288;29;20047;-84
2023/06/12 00:32:52;;;;;;;7.25;6.07;;;;;;;19.59;50.60;101375.84;4952305;29;20407;-84
2023/06/12 00:35:20;;;;;;;8.75;6.07;;;;;;;19.59;50.84;101380.50;4950747;29;20059;-84
2023/06/12 00:37:46;;;;;;;10.80;6.60;;;;;;;19.54;51.06;101382.88;4952331;28;20432;-84
2023/06/12 00:40:12;;;;;;;9.70;6.43;;;;;;;19.51;51.00;101389.56;4950627;29;20441;-85
2023/06/12 00:42:49;;;;;;;9.77;6.90;;;;;;;19.44;50.94;101382.91;4949584;29;20039;-84
2023/06/12 00:45:17;;;;;;;7.82;6.28;;;;;;;19.31;52.23;101386.06;4947620;29;20070;-84
2023/06/12 00:47:46;;;;;;;10.60;6.75;;;;;;;19.26;52.22;101385.66;4947824;29;20375;-84
2023/06/12 00:50:12;;;;;;;9.90;6.90;;;;;;;19.20;52.44;101377.97;4951443;28;20030;-84
2023/06/12 00:52:41;;;;;;;8.48;6.45;;;;;;;19.17;52.45;101374.69;4950671;29;20089;-85
2023/06/12 00:55:06;;;;;;;11.93;7.10;;;;;;;19.20;52.18;101380.75;4951458;28;20541;-84
2023/06/12 00:57:32;;;;;;;9.20;6.28;;;;;;;19.07;53.01;101372.84;4950253;29;20031;-85
2023/06/12 01:00:00;;;;;;;7.78;6.55;;;;;;;19.04;52.90;101378.66;4950546;28;20090;-85
2023/06/12 01:02:26;;;;;;;14.00;6.65;;;;;;;18.98;52.12;101381.16;4950202;28;20054;-84
2023/06/12 01:04:52;;;;;;;9.88;7.55;;;;;;;18.93;52.89;101383.50;4949803;29;20122;-84
2023/06/12 01:07:29;;;;;;;10.35;7.00;;;;;;;18.83;52.86;101373.38;4950312;28;20495;-85
2023/06/12 01:10:07;;;;;;;9.27;6.57;;;;;;;18.84;52.67;101377.91;4949948;29;20035;-84
2023/06/12 01:12:35;;;;;;;9.77;7.28;;;;;;;18.78;53.08;101380.38;4949843;29;20031;-84
2023/06/12 01:15:00;;;;;;;11.63;7.15;;;;;;;18.75;53.81;101383.47;4949668;28;20047;-83
2023/06/12 01:17:27;;;;;;;9.65;6.57;;;;;;;18.71;53.72;101384.78;4951590;28;20190;-84
2023/06/12 01:19:56;;;;;;;8.88;6.93;;;;;;;18.70;53.39;101380.25;4950437;28;20101;-84
2023/06/12 01:22:25;;;;;;;8.85;7.10;;;;;;;18.66;53.82;101384.31;4930568;29;20062;-84
2023/06/12 01:25:20;;;;;;;9.13;6.68;;;;;;;18.56;53.61;101382.47;4946633;29;20330;-84
2023/06/12 01:28:07;;;;;;;11.43;6.38;;;;;;;18.53;53.28;101381.88;4950700;28;20471;-84
2023/06/12 01:30:54;;;;;;;8.45;6.40;;;;;;;18.43;53.84;101392.06;4933682;29;20110;-84
2023/06/12 01:33:32;;;;;;;9.70;6.40;;;;;;;18.42;54.09;101388.47;4950276;29;20039;-84
2023/06/12 01:36:00;;;;;;;13.10;7.53;;;;;;;18.37;54.50;101382.50;4930380;29;20032;-84
2023/06/12 01:38:29;;;;;;;7.65;6.68;;;;;;;18.29;54.82;101377.75;4932126;29;20122;-84
2023/06/12 01:40:56;;;;;;;9.70;6.97;;;;;;;18.24;55.65;101384.72;4919687;29;20411;-84
2023/06/12 01:43:24;;;;;;;10.32;6.35;;;;;;;18.20;55.11;101386.91;4930607;29;20502;-84
2023/06/12 01:45:51;;;;;;;10.50;6.20;;;;;;;18.17;55.41;101378.91;4946444;29;20543;-85
2023/06/12 01:48:16;;;;;;;8.90;6.35;;;;;;;18.14;55.22;101389.34;4914968;29;20126;-84
2023/06/12 01:50:43;;;;;;;10.25;6.43;;;;;;;18.11;55.55;101385.03;4945481;28;20031;-82
2023/06/12 01:53:10;;;;;;;12.77;6.00;;;;;;;18.04;55.55;101387.47;4946636;29;20115;-84
2023/06/12 01:55:36;;;;;;;12.82;6.80;;;;;;;17.96;55.84;101387.38;4963780;28;20559;-84
2023/06/12 01:58:04;;;;;;;9.40;6.55;;;;;;;17.96;56.16;101387.38;4949069;28;20130;-83
2023/06/12 02:00:53;;;;;;;9.23;6.15;;;;;;;17.94;57.20;101392.13;4961132;28;20125;-83
2023/06/12 02:03:22;;;;;;;10.98;6.60;;;;;;;17.88;56.88;101391.84;4969168;28;20546;-83
2023/06/12 02:05:49;;;;;;;12.50;7.22;;;;;;;17.87;56.16;101391.00;4963836;28;20031;-84
2023/06/12 02:08:15;;;;;;;12.13;6.75;;;;;;;17.88;56.36;101389.09;4949435;28;20035;-84
2023/06/12 02:10:40;;;;;;;10.13;6.97;;;;;;;17.83;57.15;101393.16;4964660;28;20467;-84
2023/06/12 02:13:06;;;;;;;9.13;6.85;;;;;;;17.73;56.90;101372.13;4949062;29;20066;-85
2023/06/12 02:15:31;;;;;;;13.25;6.90;;;;;;;17.68;58.56;101394.56;4965116;28;20042;-84
2023/06/12 02:17:56;;;;;;;11.98;6.72;;;;;;;17.71;57.81;101388.75;4950677;29;20440;-84
2023/06/12 02:20:22;;;;;;;10.25;7.10;;;;;;;17.66;57.90;101391.06;4932855;29;20024;-84
2023/06/12 02:22:47;;;;;;;9.60;6.60;;;;;;;17.56;60.28;101384.72;4965353;28;20444;-84
2023/06/12 02:25:13;;;;;;;10.38;6.88;;;;;;;17.50;59.59;101377.91;4949865;28;20080;-83
2023/06/12 02:27:38;;;;;;;8.00;6.43;;;;;;;17.42;60.77;101386.00;4946958;29;20415;-84
2023/06/12 02:30:04;;;;;;;8.93;6.53;;;;;;;17.30;61.34;101379.75;4960672;28;20023;-83
2023/06/12 02:32:33;;;;;;;12.38;7.45;;;;;;;17.26;60.95;101382.94;4949249;28;20035;-84
2023/06/12 02:35:00;;;;;;;7.75;6.85;;;;;;;17.14;60.88;101379.41;4948886;29;20031;-83
2023/06/12 02:37:27;;;;;;;10.18;7.07;;;;;;;17.09;61.72;101382.59;4945100;28;20046;-84
2023/06/12 02:39:53;;;;;;;10.30;7.05;;;;;;;17.07;61.61;101373.63;4949032;28;20430;-84
2023/06/12 02:42:19;;;;;;;10.98;6.85;;;;;;;17.11;61.17;101376.06;4947723;28;20077;-83
2023/06/12 02:44:45;;;;;;;9.95;7.22;;;;;;;17.06;61.06;101380.09;4947546;28;20501;-84
2023/06/12 02:47:11;;;;;;;11.95;7.55;;;;;;;16.98;62.75;101379.09;4949458;28;20398;-84
2023/06/12 02:49:44;;;;;;;10.98;7.55;;;;;;;16.93;62.02;101379.50;4948194;29;20463;-84
2023/06/12 02:52:12;;;;;;;8.82;7.15;;;;;;;16.88;61.30;101376.31;4949890;28;20098;-83
2023/06/12 02:54:37;;;;;;;12.75;7.32;;;;;;;16.91;61.45;101381.50;4947926;29;20458;-83
2023/06/12 02:57:03;;;;;;;11.80;7.68;;;;;;;16.82;62.15;101374.97;4929879;29;20059;-84
2023/06/12 02:59:28;;;;;;;11.63;7.40;;;;;;;16.85;62.11;101375.72;4915877;28;20039;-84
2023/06/12 03:02:00;;;;;;;11.25;6.22;;;;;;;16.78;63.05;101367.13;4948293;29;20487;-85
2023/06/12 03:04:45;;;;;;;14.25;7.88;;;;;;;16.79;62.82;101374.41;4950770;28;20027;-84
2023/06/12 03:07:12;;;;;;;10.60;6.88;;;;;;;16.77;63.67;101374.50;4960896;28;20403;-84
2023/06/12 03:09:38;;;;;;;11.88;8.07;;;;;;;16.69;63.04;101376.19;4963749;28;20027;-83
2023/06/12 03:12:04;;;;;;;13.48;7.47;;;;;;;16.69;62.80;101381.66;4964473;28;20054;-84
2023/06/12 03:14:30;;;;;;;10.20;6.75;;;;;;;16.64;62.55;101375.72;4947484;29;20054;-83
2023/06/12 03:16:55;;;;;;;11.93;6.93;;;;;;;16.64;63.34;101382.09;4948713;29;20105;-83
2023/06/12 03:19:21;;;;;;;11.93;8.07;;;;;;;16.63;62.54;101376.72;4964166;28;20036;-83
2023/06/12 03:21:46;;;;;;;12.52;7.43;;;;;;;16.61;64.04;101385.13;4964238;28;20027;-83
2023/06/12 03:24:13;;;;;;;10.73;7.70;;;;;;;16.55;62.94;101375.56;4963899;28;20094;-83
2023/06/12 03:26:41;;;;;;;13.13;8.73;;;;;;;16.57;62.96;101389.16;4937306;29;20051;-84
2023/06/12 03:29:06;;;;;;;13.68;8.65;;;;;;;16.55;61.75;101377.41;4948883;28;20147;-82
2023/06/12 03:31:32;;;;;;;11.45;8.52;;;;;;;16.54;62.34;101386.66;4950391;29;20112;-83
2023/06/12 03:33:59;;;;;;;11.10;7.68;;;;;;;16.53;62.08;101385.78;4964002;28;20027;-84
2023/06/12 03:36:37;;;;;;;12.63;7.75;;;;;;;16.53;62.15;101394.03;4948004;29;20035;-84
2023/06/12 03:39:04;;;;;;;12.10;8.07;;;;;;;16.54;62.05;101397.66;4964497;28;20028;-83
2023/06/12 03:41:32;;;;;;;13.32;7.63;;;;;;;16.53;62.13;101404.16;4947122;29;20031;-84
2023/06/12 03:43:59;;;;;;;9.38;7.53;;;;;;;16.49;62.10;101392.56;4963779;28;20415;-84
2023/06/12 03:46:25;;;;;;;12.07;8.10;;;;;;;16.45;61.35;101382.84;4932092;29;20023;-83
2023/06/12 03:48:51;;;;;;;13.02;8.38;;;;;;;16.49;62.34;101400.81;4949719;28;20031;-84
2023/06/12 03:51:16;;;;;;;11.63;8.73;;;;;;;16.50;61.77;101402.53;4944826;29;20080;-83
2023/06/12 03:53:43;;;;;;;13.82;8.45;;;;;;;16.51;61.81;101395.19;4916064;29;20122;-83
2023/06/12 03:56:08;;;;;;;13.23;8.70;;;;;;;16.47;62.40;101397.34;4947869;29;20465;-83
2023/06/12 03:58:34;;;;;;;15.27;8.90;;;;;;;16.52;61.83;101403.28;4932461;29;20044;-83
2023/06/12 04:01:00;;;;;;;12.00;8.50;;;;;;;16.50;61.59;101401.66;4947884;29;20046;-83
2023/06/12 04:03:26;;;;;;;13.68;8.75;;;;;;;16.48;62.28;101395.47;4951797;29;20035;-83
2023/06/12 04:05:53;;;;;;;12.02;8.68;;;;;;;16.45;64.10;101406.72;4935181;29;20033;-83
2023/06/12 04:08:18;;;;;;;10.30;7.68;;;;;;;16.47;63.43;101408.31;4967531;28;20629;-83
2023/06/12 04:10:44;;;;;;;14.75;8.60;;;;;;;16.48;63.87;101414.69;4952776;28;20042;-83
2023/06/12 04:13:11;;;;;;;13.63;8.15;;;;;;;16.49;64.57;101416.41;4951711;28;20023;-83
2023/06/12 04:15:38;;;;;;;12.15;8.43;;;;;;;16.43;65.39;101419.72;4950946;29;20376;-82
2023/06/12 04:18:09;;;;;;;11.45;8.85;;;;;;;16.44;64.61;101416.81;4936096;29;20476;-84
2023/06/12 04:20:35;;;;;;;14.63;9.90;;;;;;;16.49;64.92;101424.66;4951394;29;20035;-84
2023/06/12 04:23:11;;;;;;;12.82;8.70;;;;;;;16.50;63.38;101424.50;4935381;29;20038;-84
2023/06/12 04:25:36;;;;;;;16.00;9.57;;;;;;;16.51;64.11;101415.28;4951295;28;20047;-82
2023/06/12 04:28:03;;;;;;;11.15;9.15;;;;;;;16.52;63.42;101410.66;4950254;28;20054;-83
2023/06/12 04:30:31;;;;;;;14.73;9.20;;;;;;;16.59;63.72;101420.94;4947881;28;20131;-83
2023/06/12 04:32:57;;;;;;;13.35;9.75;;;;;;;16.63;63.82;101420.69;4948189;29;20094;-83
2023/06/12 04:35:23;;;;;;;19.20;10.20;;;;;;;16.67;62.92;101425.78;4950037;29;20042;-84
2023/06/12 04:37:48;;;;;;;14.88;9.38;;;;;;;16.64;63.58;101415.06;4967215;28;20023;-83
2023/06/12 04:40:15;;;;;;;14.43;9.57;;;;;;;16.69;63.18;101418.25;4934230;29;20079;-83
2023/06/12 04:42:43;;;;;;;13.73;9.75;;;;;;;16.73;63.38;101416.16;4966334;28;20043;-82
2023/06/12 04:45:09;;;;;;;16.75;9.18;;;;;;;16.76;63.77;101424.13;4946708;29;20040;-83
2023/06/12 04:47:36;;;;;;;12.10;9.05;;;;;;;16.78;63.93;101417.47;4959628;28;20391;-83
2023/06/12 04:50:02;;;;;;;16.80;9.48;;;;;;;16.84;63.19;101424.31;4951276;29;20451;-83
2023/06/12 04:52:27;;;;;;;15.55;10.00;;;;;;;16.87;63.42;101426.75;4950405;28;20027;-83
2023/06/12 04:54:53;;;;;;;12.73;9.38;;;;;;;16.93;63.98;101425.38;4949121;29;20027;-84
2023/06/12 04:57:19;;;;;;;15.27;9.65;;;;;;;16.92;63.76;101429.09;4964594;28;20086;-83
2023/06/12 04:59:45;;;;;;;14.55;10.27;;;;;;;17.01;63.02;101431.03;4934441;28;20027;-83
2023/06/12 05:02:11;;;;;;;16.60;10.07;;;;;;;17.02;63.27;101430.00;4951020;29;20031;-83
2023/06/12 05:04:38;;;;;;;16.67;10.32;;;;;;;17.03;65.40;101423.53;4933453;29;20495;-83
2023/06/12 05:07:06;;;;;;;16.25;10.85;;;;;;;17.08;63.71;101421.22;4950506;29;20031;-82
2023/06/12 05:09:32;;;;;;;17.20;11.35;;;;;;;17.18;64.44;101435.00;4935994;29;20050;-84
2023/06/12 05:12:00;;;;;;;16.48;12.02;;;;;;;17.19;65.16;101431.25;4945346;29;20494;-83
2023/06/12 05:14:27;;;;;;;17.60;11.57;;;;;;;17.21;65.88;101434.75;4948014;29;20345;-83
2023/06/12 05:16:54;;;;;;;18.25;11.13;;;;;;;17.28;63.96;101433.16;4950542;28;20395;-83
2023/06/12 05:19:20;;;;;;;18.38;12.85;;;;;;;17.29;65.68;101426.63;4950684;28;20094;-82
2023/06/12 05:21:45;;;;;;;19.05;12.13;;;;;;;17.32;65.94;101427.22;4949974;29;20114;-83
2023/06/12 05:24:11;;;;;;;18.00;12.15;;;;;;;17.39;65.53;101433.03;4965955;28;20046;-84
2023/06/12 05:26:37;;;;;;;16.63;11.90;;;;;;;17.46;64.40;101427.84;4951213;28;20047;-84
2023/06/12 05:29:03;;;;;;;19.73;13.05;;;;;;;17.54;66.31;101439.88;4949164;28;20038;-84
2023/06/12 05:31:29;;;;;;;19.98;12.60;;;;;;;17.62;66.30;101438.28;4951017;28;20027;-83
2023/06/12 05:33:55;;;;;;;19.10;12.52;;;;;;;17.66;65.34;101428.75;4933471;29;20126;-83
2023/06/12 05:36:21;;;;;;;32.47;13.52;;;;;;;17.70;67.44;101424.69;4965666;28;20057;-83
2023/06/12 05:38:46;;;;;;;18.85;12.07;;;;;;;17.80;65.47;101422.84;4949286;29;20070;-83
2023/06/12 05:41:14;;;;;;;17.30;13.10;;;;;;;17.84;63.49;101416.91;4948780;29;20082;-83
2023/06/12 05:43:40;;;;;;;21.83;13.88;;;;;;;17.93;64.95;101417.94;4950001;29;20376;-84
2023/06/12 05:46:05;;;;;;;20.40;13.40;;;;;;;18.03;64.20;101421.53;4966162;28;20082;-83
2023/06/12 05:48:33;;;;;;;16.88;13.07;;;;;;;18.08;65.28;101429.38;4950572;29;20462;-84
2023/06/12 05:50:58;;;;;;;16.20;12.70;;;;;;;18.15;63.79;101416.78;4934151;29;21177;-83
2023/06/12 05:53:25;;;;;;;19.60;13.05;;;;;;;18.19;64.43;101409.94;4934234;29;20073;-83
2023/06/12 05:55:50;;;;;;;18.38;13.23;;;;;;;18.26;64.20;101410.22;4959610;28;20023;-83
2023/06/12 05:58:15;;;;;;;14.82;12.20;;;;;;;18.38;62.63;101411.81;4966592;28;20035;-83
2023/06/12 06:00:43;;;;;;;23.08;12.88;;;;;;;18.46;61.75;101420.19;4945041;28;20050;-83
2023/06/12 06:03:19;;;;;;;18.63;12.57;;;;;;;18.55;62.73;101422.03;4969969;28;20054;-83
2023/06/12 06:05:46;;;;;;;16.73;11.50;;;;;;;18.60;62.83;101408.72;4949350;29;20038;-84
2023/06/12 06:08:12;;;;;;;19.77;11.70;;;;;;;18.67;63.83;101416.38;4955680;28;20039;-82
2023/06/12 06:10:43;;;;;;;16.35;11.90;;;;;;;18.74;62.41;101412.88;4964998;28;20039;-82
2023/06/12 06:13:08;;;;;;;21.85;12.38;;;;;;;18.79;62.77;101413.31;4950025;28;20053;-83
2023/06/12 06:15:34;;;;;;;16.38;11.98;;;;;;;18.92;60.84;101412.97;4948545;28;20035;-84
2023/06/12 06:17:59;;;;;;;17.50;11.85;;;;;;;19.03;60.13;101422.94;4970040;28;20047;-83
2023/06/12 06:20:26;;;;;;;17.05;12.27;;;;;;;19.15;59.92;101427.22;4948273;28;20031;-83
2023/06/12 06:22:51;;;;;;;16.92;11.82;;;;;;;19.19;59.47;101417.63;4956125;28;20046;-84
2023/06/12 06:25:18;;;;;;;17.00;11.65;;;;;;;19.26;61.05;101427.03;4970336;28;20075;-83
2023/06/12 06:27:44;;;;;;;18.40;12.23;;;;;;;19.34;58.94;101429.00;4948853;28;20066;-83
2023/06/12 06:30:10;;;;;;;134.45;19.10;;;;;;;19.40;59.45;101433.03;4935914;29;20066;-84
2023/06/12 06:32:36;;;;;;;140.45;20.33;;;;;;;19.45;59.22;101431.59;4947473;29;20043;-84
2023/06/12 06:35:02;;;;;;;125.25;19.60;;;;;;;19.50;59.31;101426.47;4947258;29;20030;-83
2023/06/12 06:37:28;;;;;;;80.53;16.15;;;;;;;19.54;59.89;101425.13;4964271;28;20035;-82
2023/06/12 06:39:53;;;;;;;82.68;14.85;;;;;;;19.67;58.68;101427.53;4946266;29;20413;-83
2023/06/12 06:42:19;;;;;;;176.10;21.98;;;;;;;19.75;58.77;101427.63;4947467;29;20027;-83
2023/06/12 06:45:01;;;;;;;41.37;13.33;;;;;;;19.87;57.03;101433.78;4948461;29;20031;-83
2023/06/12 06:47:28;;;;;;;41.28;12.55;;;;;;;19.95;57.39;101425.56;4934328;29;20305;-84
2023/06/12 06:49:56;;;;;;;117.38;16.55;;;;;;;20.07;56.74;101429.84;4949650;29;20019;-83
2023/06/12 06:52:22;;;;;;;79.70;14.25;;;;;;;20.20;57.05;101431.34;4947221;28;20473;-83
2023/06/12 06:54:49;;;;;;;20.38;10.52;;;;;;;20.26;55.83;101433.44;4949131;28;20043;-83
2023/06/12 06:57:15;;;;;;;19.35;11.00;;;;;;;20.33;55.34;101438.19;4949013;28;20062;-84
2023/06/12 06:59:40;;;;;;;22.00;11.45;;;;;;;20.41;56.98;101420.78;4949157;28;20038;-83
2023/06/12 07:02:06;;;;;;;15.98;10.07;;;;;;;20.49;57.75;101428.31;4934288;29;20027;-82
2023/06/12 07:04:32;;;;;;;16.60;9.40;;;;;;;20.58;56.32;101427.34;4966309;28;20041;-84
2023/06/12 07:06:58;;;;;;;14.10;9.13;;;;;;;20.67;54.89;101428.28;4962243;28;20372;-83
2023/06/12 07:09:24;;;;;;;14.43;9.52;;;;;;;20.76;56.57;101430.94;4931421;29;20024;-83
2023/06/12 07:11:51;;;;;;;13.30;9.27;;;;;;;20.83;54.75;101426.47;4962755;28;20039;-83
2023/06/12 07:14:16;;;;;;;13.30;9.52;;;;;;;20.95;54.83;101420.66;4948444;29;20039;-84
2023/06/12 07:16:43;;;;;;;15.25;8.73;;;;;;;21.06;54.42;101418.47;4961826;28;20119;-84
2023/06/12 07:19:09;;;;;;;13.60;8.65;;;;;;;21.22;53.78;101425.13;4949092;28;20452;-85
2023/06/12 07:21:36;;;;;;;12.55;8.95;;;;;;;21.32;55.00;101418.44;4930841;29;20075;-84
2023/06/12 07:24:03;;;;;;;12.75;8.70;;;;;;;21.44;53.05;101405.13;4931662;29;20495;-84
2023/06/12 07:26:28;;;;;;;12.52;7.82;;;;;;;21.56;52.73;101398.25;4929912;28;20066;-83
2023/06/12 07:28:56;;;;;;;422.70;33.78;;;;;;;21.66;52.46;101409.19;4972107;28;20126;-85
2023/06/12 07:31:21;;;;;;;41.55;9.00;;;;;;;21.78;52.30;101410.59;4949817;29;20055;-84
2023/06/12 07:33:47;;;;;;;21.08;8.25;;;;;;;21.88;52.34;101405.78;4966296;28;20038;-85
2023/06/12 07:36:12;;;;;;;12.95;7.05;;;;;;;22.01;52.57;101401.59;4969626;28;20098;-84
2023/06/12 07:38:39;;;;;;;16.08;6.78;;;;;;;22.15;51.28;101412.06;4963283;28;20035;-85
2023/06/12 07:41:04;;;;;;;10.02;7.63;;;;;;;22.22;51.07;101406.69;4954866;28;20360;-84
2023/06/12 07:43:34;;;;;;;12.00;6.72;;;;;;;22.35;50.50;101405.13;4952751;29;20070;-85
2023/06/12 07:46:02;;;;;;;14.00;7.15;;;;;;;22.51;50.99;101397.81;4952818;29;20034;-84
2023/06/12 07:48:28;;;;;;;9.23;6.70;;;;;;;22.54;50.23;101401.09;4953652;28;20031;-84
2023/06/12 07:50:54;;;;;;;11.85;7.55;;;;;;;22.63;47.86;101407.50;4950823;28;20027;-84
2023/06/12 07:53:20;;;;;;;11.48;7.40;;;;;;;22.71;48.66;101406.59;4935484;29;20050;-84
2023/06/12 07:55:49;;;;;;;12.07;6.80;;;;;;;22.86;49.89;101408.50;4954746;28;20035;-85
2023/06/12 07:58:14;;;;;;;12.65;6.03;;;;;;;22.91;47.83;101402.44;4968464;28;20519;-84
2023/06/12 08:00:40;;;;;;;13.57;6.60;;;;;;;23.01;47.16;101397.53;4951855;29;20055;-85
2023/06/12 08:03:08;;;;;;;8.18;6.70;;;;;;;23.09;47.99;101414.19;4953690;28;20400;-84
2023/06/12 08:05:41;;;;;;;11.02;6.78;;;;;;;23.27;48.96;101404.72;4953125;29;20038;-85
2023/06/12 08:08:12;;;;;;;13.07;6.35;;;;;;;23.44;47.85;101400.81;4953047;28;20502;-84
2023/06/12 08:10:37;;;;;;;8.85;6.38;;;;;;;24.04;47.83;101402.03;4952437;29;20391;-85
2023/06/12 08:13:03;;;;;;;14.18;7.47;;;;;;;24.45;46.69;101402.56;4951789;29;20115;-84
2023/06/12 08:15:29;;;;;;;21.60;6.88;;;;;;;25.05;45.63;101400.69;4952383;29;20487;-85
2023/06/12 08:17:54;;;;;;;18.05;6.53;;;;;;;25.86;45.79;101398.75;4952932;28;20067;-85
2023/06/12 08:20:20;;;;;;;13.27;6.70;;;;;;;26.51;40.51;101403.25;4951941;28;20399;-85
2023/06/12 08:22:46;;;;;;;13.13;6.38;;;;;;;26.77;42.07;101398.97;4934026;29;20087;-84
2023/06/12 08:25:13;;;;;;;11.35;6.88;;;;;;;27.09;39.77;101398.34;4933392;29;20447;-85
2023/06/12 08:27:39;;;;;;;14.07;6.78;;;;;;;27.53;39.38;101404.53;4933159;29;20031;-85
2023/06/12 08:30:06;;;;;;;13.00;6.18;;;;;;;28.09;39.44;101395.91;4947680;29;20339;-84
2023/06/12 08:32:31;;;;;;;18.60;6.93;;;;;;;28.05;37.49;101398.25;4952939;29;20130;-85
2023/06/12 08:34:58;;;;;;;8.90;6.15;;;;;;;28.59;37.86;101401.97;4952433;29;20046;-85
2023/06/12 08:37:23;;;;;;;8.35;5.97;;;;;;;29.23;37.33;101399.25;4952240;29;20034;-84
2023/06/12 08:39:49;;;;;;;14.85;6.38;;;;;;;29.39;36.02;101402.69;4952124;28;20474;-85
2023/06/12 08:42:16;;;;;;;10.13;6.30;;;;;;;29.47;34.08;101394.88;4952375;28;20471;-84
2023/06/12 08:44:46;;;;;;;10.85;6.38;;;;;;;29.77;34.91;101391.50;4966167;28;20066;-85
2023/06/12 08:47:15;;;;;;;8.57;6.07;;;;;;;29.98;32.66;101401.50;4952991;29;20602;-85
2023/06/12 08:49:42;;;;;;;8.65;6.15;;;;;;;30.27;34.35;101391.63;4953802;28;20043;-85
2023/06/12 08:52:09;;;;;;;11.80;6.80;;;;;;;30.30;32.37;101401.53;4952257;29;20094;-84
2023/06/12 08:54:37;;;;;;;8.63;6.43;;;;;;;30.46;33.44;101389.75;4952532;28;20050;-85
2023/06/12 08:57:04;;;;;;;10.25;6.35;;;;;;;30.73;35.26;101387.56;4952693;29;20155;-83
2023/06/12 08:59:29;;;;;;;6.80;5.90;;;;;;;30.99;34.39;101390.09;4950422;28;20075;-85
2023/06/12 09:01:56;;;;;;;9.63;6.28;;;;;;;31.05;33.50;101385.47;4952431;28;20035;-86
2023/06/12 09:04:44;;;;;;;12.68;6.63;;;;;;;31.06;33.87;101390.03;4936318;29;20058;-84
2023/06/12 09:07:11;;;;;;;17.70;7.13;;;;;;;31.00;34.42;101379.72;4953493;28;20085;-85
2023/06/12 09:09:41;;;;;;;15.43;6.55;;;;;;;30.46;30.60;101372.91;4935427;29;21769;-84
2023/06/12 09:12:11;;;;;;;10.38;5.93;;;;;;;30.07;32.24;101388.94;4952622;28;20114;-84
2023/06/12 09:14:36;;;;;;;12.38;6.65;;;;;;;30.21;33.30;101376.53;4952578;28;20085;-85
2023/06/12 09:17:03;;;;;;;14.35;6.00;;;;;;;30.30;31.93;101379.06;4952358;28;20031;-85
2023/06/12 09:19:55;;;;;;;17.48;6.90;;;;;;;30.59;33.01;101371.88;4968331;28;20047;-84
2023/06/12 09:22:23;;;;;;;;;;;;;;;31.02;33.25;101365.44;4933187;29;20094;-85
2023/06/12 09:24:48;;;;;;;12.38;6.57;;;;;;;31.53;31.29;101364.19;4951481;29;19917;-85
2023/06/12 09:27:14;;;;;;;8.13;6.22;;;;;;;31.62;29.84;101368.38;4952872;28;20039;-84
2023/06/12 09:29:41;;;;;;;9.05;5.57;;;;;;;31.38;31.00;101364.56;4934227;29;20031;-84
2023/06/12 09:32:10;;;;;;;8.77;5.70;;;;;;;31.08;30.68;101365.34;4952345;28;20055;-85
2023/06/12 09:34:36;;;;;;;9.45;5.65;;;;;;;31.25;29.95;101372.06;4952558;29;20039;-84
2023/06/12 09:37:05;;;;;;;8.05;5.38;;;;;;;31.50;31.94;101371.97;4951052;28;20562;-84
2023/06/12 09:39:31;;;;;;;11.15;6.05;;;;;;;31.82;30.94;101368.09;4967213;28;20598;-85
2023/06/12 09:41:57;;;;;;;8.73;5.95;;;;;;;31.92;29.39;101366.44;4952912;28;20031;-84
2023/06/12 09:44:30;;;;;;;8.93;6.30;;;;;;;31.72;28.41;101372.34;4950620;29;20050;-84
2023/06/12 09:47:03;;;;;;;7.40;5.68;;;;;;;31.90;31.53;101376.22;4968122;28;20039;-84
2023/06/12 09:49:29;;;;;;;7.25;5.55;;;;;;;31.92;30.45;101366.44;4952952;28;20039;-84
2023/06/12 09:51:59;;;;;;;8.27;5.72;;;;;;;31.99;28.76;101371.97;4933980;29;20146;-84
2023/06/12 09:54:27;;;;;;;12.80;5.78;;;;;;;32.17;31.02;101373.81;4952293;28;20042;-84
2023/06/12 09:56:55;;;;;;;153.15;15.07;;;;;;;31.67;28.83;101375.00;4952136;28;20247;-84
2023/06/12 09:59:22;;;;;;;9.73;6.00;;;;;;;31.55;30.20;101367.59;4964756;28;20110;-85
2023/06/12 10:01:53;;;;;;;283.73;25.63;;;;;;;31.72;31.24;101371.47;4950446;28;20066;-85
2023/06/12 10:04:37;;;;;;;12.73;6.28;;;;;;;31.97;31.63;101369.38;4952726;28;20060;-84
2023/06/12 10:07:15;;;;;;;7.78;6.10;;;;;;;32.07;29.92;101370.75;4950668;29;20151;-85
2023/06/12 10:09:42;;;;;;;6.75;6.05;;;;;;;32.47;31.43;101374.66;4951291;28;20116;-84
2023/06/12 10:12:10;;;;;;;9.07;6.53;;;;;;;32.43;28.63;101376.25;4952460;28;20031;-85
2023/06/12 10:14:37;;;;;;;14.43;5.97;;;;;;;32.04;29.40;101366.47;4965973;28;20061;-84
2023/06/12 10:17:04;;;;;;;8.05;5.95;;;;;;;32.05;29.95;101364.50;4951605;29;20047;-84
2023/06/12 10:19:31;;;;;;;9.55;6.05;;;;;;;32.15;28.62;101360.00;4951133;28;20039;-85
2023/06/12 10:21:58;;;;;;;10.25;5.82;;;;;;;32.52;27.77;101362.66;4951358;28;20078;-85
2023/06/12 10:24:24;;;;;;;8.82;6.10;;;;;;;32.69;27.27;101357.13;4934363;29;20475;-85
2023/06/12 10:26:52;;;;;;;7.80;6.13;;;;;;;32.84;28.39;101343.41;4949892;29;20051;-84
2023/06/12 10:29:25;;;;;;;7.68;6.05;;;;;;;33.30;29.90;101352.91;4950194;29;20031;-84
2023/06/12 10:31:52;;;;;;;6.82;5.35;;;;;;;33.69;27.37;101350.31;4950910;28;20082;-84
2023/06/12 10:34:18;;;;;;;7.10;5.15;;;;;;;33.90;27.02;101352.44;4951708;28;20031;-84
2023/06/12 10:36:46;;;;;;;17.05;6.32;;;;;;;33.28;27.90;101352.28;4951818;28;20102;-83
2023/06/12 10:39:17;;;;;;;7.40;5.38;;;;;;;32.97;27.00;101346.00;4951455;28;20463;-84
2023/06/12 10:41:57;;;;;;;9.23;6.13;;;;;;;32.68;26.71;101352.59;4950264;29;20034;-84
2023/06/12 10:44:45;;;;;;;8.15;5.78;;;;;;;33.10;28.40;101346.81;4966053;28;20039;-84
2023/06/12 10:47:19;;;;;;;8.77;5.75;;;;;;;33.13;29.24;101346.31;4931399;29;20176;-84
2023/06/12 10:50:00;;;;;;;9.40;6.30;;;;;;;33.24;28.06;101343.44;4932887;29;20036;-84
2023/06/12 10:52:25;;;;;;;13.60;6.53;;;;;;;33.02;26.05;101345.25;4948933;29;20487;-85
2023/06/12 10:55:17;;;;;;;10.60;6.30;;;;;;;33.15;27.94;101332.81;4951803;28;20062;-84
2023/06/12 10:57:53;;;;;;;10.20;5.90;;;;;;;33.36;27.91;101336.94;4950347;28;20561;-84
2023/06/12 11:00:21;;;;;;;6.55;5.95;;;;;;;33.62;25.95;101335.50;4951148;28;20039;-84
2023/06/12 11:02:58;;;;;;;8.07;5.90;;;;;;;33.83;27.10;101336.75;4951841;28;20046;-84
2023/06/12 11:05:25;;;;;;;9.57;5.85;;;;;;;34.07;26.37;101327.06;4950973;28;20062;-84
2023/06/12 11:07:53;;;;;;;6.85;5.95;;;;;;;34.10;25.22;101323.72;4951648;28;20031;-84
2023/06/12 11:10:18;;;;;;;9.45;5.90;;;;;;;34.26;25.53;101328.50;4950914;28;20039;-84
2023/06/12 11:12:48;;;;;;;10.80;6.32;;;;;;;34.00;24.88;101329.22;4949087;28;20517;-85
2023/06/12 11:15:14;;;;;;;6.93;5.75;;;;;;;33.87;26.52;101323.84;4951905;28;20103;-84
2023/06/12 11:17:39;;;;;;;6.30;5.70;;;;;;;33.64;24.97;101322.00;4950791;29;20030;-84
2023/06/12 11:20:05;;;;;;;16.60;5.57;;;;;;;34.04;27.28;101330.38;4952638;29;20055;-85